createdAt,value
2018-09-26T00:00:41.808Z,1022.61
2018-09-26T00:01:41.783Z,1022.60
2018-09-26T00:02:41.780Z,1022.58
2018-09-26T00:03:41.769Z,1022.52
2018-09-26T00:04:41.784Z,1022.57
2018-09-26T00:05:41.726Z,1022.55
2018-09-26T00:06:41.715Z,1022.54
2018-09-26T00:07:41.691Z,1022.52
2018-09-26T00:08:41.679Z,1022.50
2018-09-26T00:09:41.723Z,1022.47
2018-09-26T00:10:41.644Z,1022.48
2018-09-26T00:11:41.640Z,1022.46
2018-09-26T00:12:41.618Z,1022.40
2018-09-26T00:13:41.609Z,1022.39
2018-09-26T00:14:41.594Z,1022.35
2018-09-26T00:15:41.568Z,1022.35
2018-09-26T00:16:41.550Z,1022.35
2018-09-26T00:17:41.569Z,1022.33
2018-09-26T00:18:41.521Z,1022.33
2018-09-26T00:19:41.505Z,1022.34
2018-09-26T00:20:41.532Z,1022.30
2018-09-26T00:21:41.466Z,1022.30
2018-09-26T00:22:41.457Z,1022.29
2018-09-26T00:23:41.436Z,1022.28
2018-09-26T00:24:41.416Z,1022.26
2018-09-26T00:25:41.441Z,1022.22
2018-09-26T00:26:41.426Z,1022.19
2018-09-26T00:27:41.378Z,1022.20
2018-09-26T00:28:41.360Z,1022.18
2018-09-26T00:29:41.347Z,1022.17
2018-09-26T00:30:41.324Z,1022.17
2018-09-26T00:31:41.366Z,1022.11
2018-09-26T00:32:41.300Z,1022.09
2018-09-26T00:33:41.285Z,1022.14
2018-09-26T00:34:41.265Z,1022.14
2018-09-26T00:35:41.266Z,1022.12
2018-09-26T00:36:41.238Z,1022.14
2018-09-26T00:37:41.251Z,1022.14
2018-09-26T00:38:41.197Z,1022.18
2018-09-26T00:39:41.211Z,1022.15
2018-09-26T00:40:41.170Z,1022.22
2018-09-26T00:41:41.184Z,1022.20
2018-09-26T00:42:41.146Z,1022.15
2018-09-26T00:43:41.116Z,1022.14
2018-09-26T00:44:41.109Z,1022.17
2018-09-26T00:45:41.088Z,1022.24
2018-09-26T00:46:41.064Z,1022.25
2018-09-26T00:47:41.057Z,1022.31
2018-09-26T00:48:41.071Z,1022.27
2018-09-26T00:49:41.032Z,1022.25
2018-09-26T00:50:41.004Z,1022.22
2018-09-26T00:51:40.989Z,1022.19
2018-09-26T00:52:40.969Z,1022.14
2018-09-26T00:53:40.985Z,1022.09
2018-09-26T00:54:40.928Z,1022.11
2018-09-26T00:55:40.918Z,1022.08
2018-09-26T00:56:40.911Z,1022.04
2018-09-26T00:57:40.887Z,1022.04
2018-09-26T00:58:41.127Z,1022.07
2018-09-26T00:59:40.909Z,1022.04
2018-09-26T01:00:40.833Z,1021.97
2018-09-26T01:01:40.828Z,1021.95
2018-09-26T01:02:40.813Z,1021.95
2018-09-26T01:03:40.789Z,1021.96
2018-09-26T01:04:40.777Z,1021.97
2018-09-26T01:05:40.760Z,1021.94
2018-09-26T01:06:40.737Z,1021.96
2018-09-26T01:07:40.723Z,1021.92
2018-09-26T01:08:40.707Z,1021.90
2018-09-26T01:09:40.731Z,1021.84
2018-09-26T01:10:40.676Z,1021.81
2018-09-26T01:11:40.731Z,1021.79
2018-09-26T01:12:40.648Z,1021.82
2018-09-26T01:13:40.628Z,1021.86
2018-09-26T01:14:40.614Z,1021.93
2018-09-26T01:15:40.595Z,1021.89
2018-09-26T01:16:40.581Z,1021.84
2018-09-26T01:17:40.563Z,1021.76
2018-09-26T01:18:40.549Z,1021.74
2018-09-26T01:19:40.532Z,1021.75
2018-09-26T01:20:40.514Z,1021.74
2018-09-26T01:21:40.504Z,1021.72
2018-09-26T01:22:40.506Z,1021.68
2018-09-26T01:23:40.478Z,1021.65
2018-09-26T01:24:40.441Z,1021.62
2018-09-26T01:25:40.479Z,1021.64
2018-09-26T01:26:40.414Z,1021.60
2018-09-26T01:27:40.401Z,1021.56
2018-09-26T01:28:40.385Z,1021.58
2018-09-26T01:29:40.371Z,1021.56
2018-09-26T01:30:40.358Z,1021.55
2018-09-26T01:31:40.585Z,1021.63
2018-09-26T01:32:40.324Z,1021.55
2018-09-26T01:33:40.312Z,1021.52
2018-09-26T01:34:40.282Z,1021.52
2018-09-26T01:35:40.271Z,1021.52
2018-09-26T01:36:40.261Z,1021.56
2018-09-26T01:37:40.241Z,1021.58
2018-09-26T01:38:40.212Z,1021.57
2018-09-26T01:39:40.205Z,1021.60
2018-09-26T01:40:40.190Z,1021.57
2018-09-26T01:41:40.168Z,1021.58
2018-09-26T01:42:40.183Z,1021.58
2018-09-26T01:43:40.145Z,1021.56
2018-09-26T01:44:40.123Z,1021.56
2018-09-26T01:45:40.111Z,1021.61
2018-09-26T01:46:40.102Z,1021.58
2018-09-26T01:47:40.149Z,1021.59
2018-09-26T01:48:40.060Z,1021.57
2018-09-26T01:49:40.046Z,1021.62
2018-09-26T01:50:40.176Z,1021.62
2018-09-26T01:51:40.010Z,1021.62
2018-09-26T01:52:39.986Z,1021.64
2018-09-26T01:53:40.007Z,1021.63
2018-09-26T01:54:39.985Z,1021.65
2018-09-26T01:55:39.943Z,1021.62
2018-09-26T01:56:39.934Z,1021.59
2018-09-26T01:57:39.943Z,1021.49
2018-09-26T01:58:39.933Z,1021.48
2018-09-26T01:59:39.875Z,1021.47
2018-09-26T02:00:39.866Z,1021.47
2018-09-26T02:01:39.850Z,1021.48
2018-09-26T02:02:39.834Z,1021.49
2018-09-26T02:03:39.874Z,1021.51
2018-09-26T02:04:39.810Z,1021.45
2018-09-26T02:05:39.787Z,1021.42
2018-09-26T02:06:39.760Z,1021.39
2018-09-26T02:07:39.754Z,1021.36
2018-09-26T02:08:39.735Z,1021.31
2018-09-26T02:09:39.722Z,1021.36
2018-09-26T02:10:39.702Z,1021.35
2018-09-26T02:11:39.679Z,1021.39
2018-09-26T02:12:39.673Z,1021.37
2018-09-26T02:13:39.655Z,1021.41
2018-09-26T02:14:39.638Z,1021.44
2018-09-26T02:15:39.621Z,1021.51
2018-09-26T02:16:39.594Z,1021.45
2018-09-26T02:17:39.587Z,1021.46
2018-09-26T02:18:39.582Z,1021.43
2018-09-26T02:19:39.589Z,1021.44
2018-09-26T02:20:39.549Z,1021.41
2018-09-26T02:21:39.528Z,1021.45
2018-09-26T02:22:39.506Z,1021.38
2018-09-26T02:23:39.528Z,1021.35
2018-09-26T02:24:39.536Z,1021.31
2018-09-26T02:25:39.469Z,1021.31
2018-09-26T02:26:39.443Z,1021.39
2018-09-26T02:27:39.425Z,1021.34
2018-09-26T02:28:39.408Z,1021.37
2018-09-26T02:29:39.390Z,1021.34
2018-09-26T02:30:39.402Z,1021.33
2018-09-26T02:31:39.380Z,1021.31
2018-09-26T02:32:39.347Z,1021.27
2018-09-26T02:33:39.331Z,1021.25
2018-09-26T02:34:39.340Z,1021.12
2018-09-26T02:35:39.325Z,1021.07
2018-09-26T02:36:39.277Z,1020.99
2018-09-26T02:37:39.261Z,1020.92
2018-09-26T02:38:39.247Z,1020.94
2018-09-26T02:39:39.222Z,1020.94
2018-09-26T02:40:39.247Z,1020.95
2018-09-26T02:41:39.224Z,1021.06
2018-09-26T02:42:39.174Z,1021.10
2018-09-26T02:43:39.157Z,1021.12
2018-09-26T02:44:39.144Z,1021.17
2018-09-26T02:45:39.155Z,1021.21
2018-09-26T02:46:39.110Z,1021.23
2018-09-26T02:47:39.099Z,1021.22
2018-09-26T02:48:39.082Z,1021.26
2018-09-26T02:49:39.063Z,1021.28
2018-09-26T02:50:39.070Z,1021.32
2018-09-26T02:51:39.051Z,1021.32
2018-09-26T02:52:39.017Z,1021.29
2018-09-26T02:53:38.995Z,1021.27
2018-09-26T02:54:38.984Z,1021.22
2018-09-26T02:55:39.030Z,1021.22
2018-09-26T02:56:38.950Z,1021.20
2018-09-26T02:57:38.926Z,1021.21
2018-09-26T02:58:38.908Z,1021.23
2018-09-26T02:59:38.933Z,1021.23
2018-09-26T03:00:38.884Z,1021.28
2018-09-26T03:01:38.860Z,1021.37
2018-09-26T03:02:38.853Z,1021.38
2018-09-26T03:03:38.826Z,1021.44
2018-09-26T03:04:38.819Z,1021.44
2018-09-26T03:05:38.791Z,1021.42
2018-09-26T03:06:38.815Z,1021.40
2018-09-26T03:07:38.769Z,1021.39
2018-09-26T03:08:38.764Z,1021.38
2018-09-26T03:09:38.725Z,1021.35
2018-09-26T03:10:38.716Z,1021.38
2018-09-26T03:11:38.710Z,1021.32
2018-09-26T03:12:38.708Z,1021.30
2018-09-26T03:13:38.669Z,1021.26
2018-09-26T03:14:38.655Z,1021.26
2018-09-26T03:15:38.636Z,1021.25
2018-09-26T03:16:38.619Z,1021.22
2018-09-26T03:17:38.663Z,1021.29
2018-09-26T03:18:38.591Z,1021.29
2018-09-26T03:19:38.565Z,1021.28
2018-09-26T03:20:38.553Z,1021.27
2018-09-26T03:21:38.541Z,1021.21
2018-09-26T03:22:38.515Z,1021.18
2018-09-26T03:23:38.489Z,1021.14
2018-09-26T03:24:38.483Z,1021.12
2018-09-26T03:25:38.467Z,1021.09
2018-09-26T03:26:38.451Z,1020.97
2018-09-26T03:27:38.439Z,1021.01
2018-09-26T03:28:38.449Z,1021.02
2018-09-26T03:29:38.401Z,1021.00
2018-09-26T03:30:38.395Z,1020.95
2018-09-26T03:31:38.375Z,1020.92
2018-09-26T03:32:38.393Z,1020.91
2018-09-26T03:33:38.375Z,1020.89
2018-09-26T03:34:38.322Z,1020.86
2018-09-26T03:35:38.327Z,1020.93
2018-09-26T03:36:38.287Z,1020.87
2018-09-26T03:37:38.262Z,1020.90
2018-09-26T03:38:38.278Z,1020.86
2018-09-26T03:39:38.313Z,1020.84
2018-09-26T03:40:38.214Z,1020.76
2018-09-26T03:41:38.195Z,1020.73
2018-09-26T03:42:38.188Z,1020.72
2018-09-26T03:43:38.156Z,1020.70
2018-09-26T03:44:38.154Z,1020.69
2018-09-26T03:45:38.129Z,1020.65
2018-09-26T03:46:38.113Z,1020.62
2018-09-26T03:47:38.097Z,1020.58
2018-09-26T03:48:38.090Z,1020.57
2018-09-26T03:49:38.061Z,1020.56
2018-09-26T03:50:38.333Z,1020.54
2018-09-26T03:51:38.030Z,1020.54
2018-09-26T03:52:38.008Z,1020.54
2018-09-26T03:53:37.999Z,1020.54
2018-09-26T03:54:37.974Z,1020.60
2018-09-26T03:55:38.020Z,1020.63
2018-09-26T03:56:37.948Z,1020.65
2018-09-26T03:57:37.926Z,1020.67
2018-09-26T03:58:37.918Z,1020.65
2018-09-26T03:59:37.893Z,1020.71
2018-09-26T04:00:37.885Z,1020.71
2018-09-26T04:01:37.920Z,1020.76
2018-09-26T04:02:37.850Z,1020.75
2018-09-26T04:03:37.832Z,1020.74
2018-09-26T04:04:37.812Z,1020.78
2018-09-26T04:05:37.800Z,1020.74
2018-09-26T04:06:37.786Z,1020.67
2018-09-26T04:07:37.793Z,1020.71
2018-09-26T04:08:37.740Z,1020.66
2018-09-26T04:09:37.723Z,1020.70
2018-09-26T04:10:37.716Z,1020.75
2018-09-26T04:11:37.699Z,1020.72
2018-09-26T04:12:37.830Z,1020.66
2018-09-26T04:13:37.664Z,1020.62
2018-09-26T04:14:37.648Z,1020.57
2018-09-26T04:15:37.669Z,1020.57
2018-09-26T04:16:37.641Z,1020.56
2018-09-26T04:17:37.600Z,1020.61
2018-09-26T04:18:37.586Z,1020.60
2018-09-26T04:19:37.590Z,1020.56
2018-09-26T04:20:37.548Z,1020.54
2018-09-26T04:21:37.528Z,1020.52
2018-09-26T04:22:37.542Z,1020.50
2018-09-26T04:23:37.502Z,1020.52
2018-09-26T04:24:37.469Z,1020.51
2018-09-26T04:25:37.454Z,1020.47
2018-09-26T04:26:37.606Z,1020.49
2018-09-26T04:27:37.531Z,1020.50
2018-09-26T04:28:37.404Z,1020.50
2018-09-26T04:29:37.413Z,1020.45
2018-09-26T04:30:37.395Z,1020.47
2018-09-26T04:31:37.358Z,1020.45
2018-09-26T04:32:37.433Z,1020.42
2018-09-26T04:33:37.413Z,1020.43
2018-09-26T04:34:37.314Z,1020.41
2018-09-26T04:35:37.290Z,1020.39
2018-09-26T04:36:37.265Z,1020.40
2018-09-26T04:37:37.279Z,1020.41
2018-09-26T04:38:37.292Z,1020.37
2018-09-26T04:39:37.228Z,1020.40
2018-09-26T04:40:37.200Z,1020.44
2018-09-26T04:41:37.229Z,1020.44
2018-09-26T04:42:37.179Z,1020.45
2018-09-26T04:43:37.185Z,1020.47
2018-09-26T04:44:37.138Z,1020.45
2018-09-26T04:45:37.120Z,1020.44
2018-09-26T04:46:37.113Z,1020.44
2018-09-26T04:47:37.092Z,1020.38
2018-09-26T04:48:37.126Z,1020.44
2018-09-26T04:49:37.054Z,1020.44
2018-09-26T04:50:37.047Z,1020.44
2018-09-26T04:51:37.012Z,1020.44
2018-09-26T04:52:36.999Z,1020.48
2018-09-26T04:53:36.995Z,1020.46
2018-09-26T04:54:37.016Z,1020.50
2018-09-26T04:55:36.960Z,1020.51
2018-09-26T04:56:36.928Z,1020.49
2018-09-26T04:57:36.915Z,1020.50
2018-09-26T04:58:36.909Z,1020.53
2018-09-26T04:59:36.888Z,1020.57
2018-09-26T05:00:36.869Z,1020.58
2018-09-26T05:01:36.855Z,1020.63
2018-09-26T05:02:36.840Z,1020.64
2018-09-26T05:03:36.831Z,1020.62
2018-09-26T05:04:36.835Z,1020.62
2018-09-26T05:05:36.791Z,1020.61
2018-09-26T05:06:36.768Z,1020.65
2018-09-26T05:07:36.758Z,1020.67
2018-09-26T05:08:36.741Z,1020.67
2018-09-26T05:09:36.717Z,1020.64
2018-09-26T05:10:36.736Z,1020.63
2018-09-26T05:11:36.692Z,1020.62
2018-09-26T05:12:36.666Z,1020.65
2018-09-26T05:13:36.656Z,1020.63
2018-09-26T05:14:36.708Z,1020.67
2018-09-26T05:15:36.611Z,1020.69
2018-09-26T05:16:36.602Z,1020.68
2018-09-26T05:17:36.595Z,1020.65
2018-09-26T05:18:36.572Z,1020.66
2018-09-26T05:19:36.552Z,1020.61
2018-09-26T05:20:36.526Z,1020.64
2018-09-26T05:21:36.548Z,1020.55
2018-09-26T05:22:36.542Z,1020.55
2018-09-26T05:23:36.487Z,1020.57
2018-09-26T05:24:36.463Z,1020.57
2018-09-26T05:25:36.478Z,1020.56
2018-09-26T05:26:36.471Z,1020.56
2018-09-26T05:27:36.417Z,1020.57
2018-09-26T05:28:36.399Z,1020.53
2018-09-26T05:29:36.382Z,1020.53
2018-09-26T05:30:36.372Z,1020.56
2018-09-26T05:31:36.365Z,1020.61
2018-09-26T05:32:36.335Z,1020.61
2018-09-26T05:33:36.318Z,1020.65
2018-09-26T05:34:36.298Z,1020.62
2018-09-26T05:35:36.281Z,1020.59
2018-09-26T05:36:36.285Z,1020.56
2018-09-26T05:37:36.253Z,1020.53
2018-09-26T05:38:36.236Z,1020.52
2018-09-26T05:39:36.220Z,1020.48
2018-09-26T05:40:36.192Z,1020.46
2018-09-26T05:41:36.231Z,1020.51
2018-09-26T05:42:36.175Z,1020.50
2018-09-26T05:43:36.141Z,1020.46
2018-09-26T05:44:36.122Z,1020.47
2018-09-26T05:45:36.109Z,1020.48
2018-09-26T05:46:36.130Z,1020.48
2018-09-26T05:47:36.085Z,1020.46
2018-09-26T05:48:36.068Z,1020.46
2018-09-26T05:49:36.055Z,1020.51
2018-09-26T05:50:36.038Z,1020.46
2018-09-26T05:51:36.020Z,1020.45
2018-09-26T05:52:35.998Z,1020.40
2018-09-26T05:53:35.985Z,1020.39
2018-09-26T05:54:35.978Z,1020.35
2018-09-26T05:55:35.948Z,1020.36
2018-09-26T05:56:35.930Z,1020.35
2018-09-26T05:57:35.951Z,1020.39
2018-09-26T05:58:35.895Z,1020.38
2018-09-26T05:59:35.905Z,1020.36
2018-09-26T06:00:35.861Z,1020.36
2018-09-26T06:01:35.851Z,1020.38
2018-09-26T06:02:35.826Z,1020.36
2018-09-26T06:03:35.842Z,1020.36
2018-09-26T06:04:35.800Z,1020.34
2018-09-26T06:05:35.833Z,1020.32
2018-09-26T06:06:35.766Z,1020.33
2018-09-26T06:07:35.751Z,1020.31
2018-09-26T06:08:36.000Z,1020.34
2018-09-26T06:09:35.710Z,1020.29
2018-09-26T06:10:35.697Z,1020.26
2018-09-26T06:11:35.686Z,1020.23
2018-09-26T06:12:35.663Z,1020.17
2018-09-26T06:13:35.647Z,1020.17
2018-09-26T06:14:35.644Z,1020.15
2018-09-26T06:15:35.612Z,1020.14
2018-09-26T06:16:35.601Z,1020.10
2018-09-26T06:17:35.574Z,1020.09
2018-09-26T06:18:35.571Z,1020.09
2018-09-26T06:19:35.560Z,1020.13
2018-09-26T06:20:35.532Z,1020.13
2018-09-26T06:21:35.511Z,1020.09
2018-09-26T06:22:35.497Z,1020.02
2018-09-26T06:23:35.479Z,1020.02
2018-09-26T06:24:35.560Z,1019.93
2018-09-26T06:25:35.444Z,1019.95
2018-09-26T06:26:35.435Z,1019.90
2018-09-26T06:27:35.413Z,1019.86
2018-09-26T06:28:35.401Z,1019.82
2018-09-26T06:29:35.378Z,1019.85
2018-09-26T06:30:35.391Z,1019.87
2018-09-26T06:31:35.353Z,1019.86
2018-09-26T06:32:35.337Z,1019.92
2018-09-26T06:33:35.322Z,1019.98
2018-09-26T06:34:35.304Z,1019.99
2018-09-26T06:35:35.285Z,1020.00
2018-09-26T06:36:35.276Z,1019.94
2018-09-26T06:37:35.258Z,1019.88
2018-09-26T06:38:35.268Z,1019.88
2018-09-26T06:39:35.220Z,1019.92
2018-09-26T06:40:35.247Z,1019.92
2018-09-26T06:41:35.190Z,1019.93
2018-09-26T06:42:35.167Z,1019.91
2018-09-26T06:43:35.141Z,1019.89
2018-09-26T06:44:35.128Z,1019.89
2018-09-26T06:45:35.124Z,1019.91
2018-09-26T06:46:35.117Z,1019.90
2018-09-26T06:47:35.164Z,1019.87
2018-09-26T06:48:35.067Z,1019.88
2018-09-26T06:49:35.054Z,1019.86
2018-09-26T06:50:35.045Z,1019.89
2018-09-26T06:51:35.024Z,1019.92
2018-09-26T06:52:35.009Z,1019.95
2018-09-26T06:53:35.051Z,1019.96
2018-09-26T06:54:34.974Z,1019.99
2018-09-26T06:55:34.960Z,1019.97
2018-09-26T06:56:34.938Z,1020.02
2018-09-26T06:57:34.929Z,1020.02
2018-09-26T06:58:34.905Z,1020.00
2018-09-26T06:59:34.892Z,1020.05
2018-09-26T07:00:34.880Z,1020.08
2018-09-26T07:01:34.865Z,1020.10
2018-09-26T07:02:34.841Z,1020.09
2018-09-26T07:03:34.824Z,1020.09
2018-09-26T07:04:34.806Z,1020.06
2018-09-26T07:05:34.800Z,1020.08
2018-09-26T07:06:34.806Z,1020.07
2018-09-26T07:07:34.761Z,1020.08
2018-09-26T07:08:34.768Z,1020.08
2018-09-26T07:09:34.734Z,1020.07
2018-09-26T07:10:34.724Z,1020.05
2018-09-26T07:11:34.707Z,1020.04
2018-09-26T07:12:34.686Z,1020.04
2018-09-26T07:13:34.734Z,1020.05
2018-09-26T07:14:34.653Z,1020.07
2018-09-26T07:15:34.641Z,1020.05
2018-09-26T07:16:34.612Z,1020.06
2018-09-26T07:17:34.604Z,1020.07
2018-09-26T07:18:34.581Z,1020.05
2018-09-26T07:19:34.581Z,1020.04
2018-09-26T07:20:34.565Z,1020.00
2018-09-26T07:21:34.542Z,1020.00
2018-09-26T07:22:34.519Z,1020.00
2018-09-26T07:23:34.503Z,1019.98
2018-09-26T07:24:34.536Z,1020.01
2018-09-26T07:25:34.514Z,1019.99
2018-09-26T07:26:34.463Z,1019.96
2018-09-26T07:27:34.448Z,1019.97
2018-09-26T07:28:34.427Z,1019.91
2018-09-26T07:29:34.465Z,1019.94
2018-09-26T07:30:34.401Z,1019.94
2018-09-26T07:31:34.455Z,1019.98
2018-09-26T07:32:34.366Z,1020.03
2018-09-26T07:33:34.352Z,1020.09
2018-09-26T07:34:34.334Z,1020.10
2018-09-26T07:35:34.338Z,1020.11
2018-09-26T07:36:34.317Z,1020.10
2018-09-26T07:37:34.297Z,1020.17
2018-09-26T07:38:34.320Z,1020.18
2018-09-26T07:39:34.249Z,1020.14
2018-09-26T07:40:34.265Z,1020.15
2018-09-26T07:41:34.224Z,1020.17
2018-09-26T07:42:34.207Z,1020.15
2018-09-26T07:43:34.198Z,1020.15
2018-09-26T07:44:34.187Z,1020.15
2018-09-26T07:45:34.272Z,1020.20
2018-09-26T07:46:34.183Z,1020.21
2018-09-26T07:47:34.133Z,1020.23
2018-09-26T07:48:34.106Z,1020.22
2018-09-26T07:49:34.122Z,1020.23
2018-09-26T07:50:34.111Z,1020.29
2018-09-26T07:51:34.073Z,1020.28
2018-09-26T07:52:34.052Z,1020.30
2018-09-26T07:53:34.032Z,1020.33
2018-09-26T07:54:34.028Z,1020.30
2018-09-26T07:55:34.065Z,1020.29
2018-09-26T07:56:34.001Z,1020.34
2018-09-26T07:57:33.974Z,1020.37
2018-09-26T07:58:33.966Z,1020.33
2018-09-26T07:59:33.953Z,1020.35
2018-09-26T08:00:33.949Z,1020.37
2018-09-26T08:01:33.925Z,1020.35
2018-09-26T08:02:33.899Z,1020.30
2018-09-26T08:03:33.896Z,1020.32
2018-09-26T08:04:33.901Z,1020.29
2018-09-26T08:05:33.852Z,1020.28
2018-09-26T08:06:33.836Z,1020.24
2018-09-26T08:07:33.815Z,1020.24
2018-09-26T08:08:33.804Z,1020.30
2018-09-26T08:09:33.817Z,1020.24
2018-09-26T08:10:33.776Z,1020.21
2018-09-26T08:11:33.822Z,1020.22
2018-09-26T08:12:33.752Z,1020.24
2018-09-26T08:13:33.740Z,1020.19
2018-09-26T08:14:33.736Z,1020.23
2018-09-26T08:15:33.705Z,1020.24
2018-09-26T08:16:33.692Z,1020.26
2018-09-26T08:17:33.701Z,1020.24
2018-09-26T08:18:33.724Z,1020.22
2018-09-26T08:19:33.742Z,1020.23
2018-09-26T08:20:33.641Z,1020.18
2018-09-26T08:21:33.619Z,1020.19
2018-09-26T08:22:33.618Z,1020.19
2018-09-26T08:23:33.582Z,1020.16
2018-09-26T08:24:33.597Z,1020.16
2018-09-26T08:25:33.549Z,1020.20
2018-09-26T08:26:33.537Z,1020.22
2018-09-26T08:27:33.524Z,1020.26
2018-09-26T08:28:33.538Z,1020.24
2018-09-26T08:29:33.500Z,1020.24
2018-09-26T08:30:33.476Z,1020.27
2018-09-26T08:31:33.486Z,1020.29
2018-09-26T08:32:33.448Z,1020.26
2018-09-26T08:33:33.441Z,1020.27
2018-09-26T08:34:33.423Z,1020.29
2018-09-26T08:35:33.403Z,1020.32
2018-09-26T08:36:33.398Z,1020.35
2018-09-26T08:37:33.372Z,1020.32
2018-09-26T08:38:33.380Z,1020.33
2018-09-26T08:39:33.369Z,1020.30
2018-09-26T08:40:33.335Z,1020.34
2018-09-26T08:41:33.312Z,1020.36
2018-09-26T08:42:33.300Z,1020.35
2018-09-26T08:43:33.321Z,1020.35
2018-09-26T08:44:33.307Z,1020.36
2018-09-26T08:45:33.256Z,1020.35
2018-09-26T08:46:33.243Z,1020.33
2018-09-26T08:47:33.225Z,1020.32
2018-09-26T08:48:33.206Z,1020.33
2018-09-26T08:49:33.221Z,1020.31
2018-09-26T08:50:33.179Z,1020.30
2018-09-26T08:51:33.178Z,1020.28
2018-09-26T08:52:33.152Z,1020.23
2018-09-26T08:53:33.164Z,1020.26
2018-09-26T08:54:33.126Z,1020.20
2018-09-26T08:55:33.173Z,1020.22
2018-09-26T08:56:33.101Z,1020.23
2018-09-26T08:57:33.082Z,1020.20
2018-09-26T08:58:33.072Z,1020.20
2018-09-26T08:59:33.106Z,1020.21
2018-09-26T09:00:33.056Z,1020.20
2018-09-26T09:01:33.054Z,1020.23
2018-09-26T09:02:33.015Z,1020.24
2018-09-26T09:03:32.989Z,1020.18
2018-09-26T09:04:32.981Z,1020.19
2018-09-26T09:05:32.969Z,1020.17
2018-09-26T09:06:32.947Z,1020.12
2018-09-26T09:07:32.940Z,1020.19
2018-09-26T09:08:32.925Z,1020.20
2018-09-26T09:09:32.904Z,1020.16
2018-09-26T09:10:32.977Z,1020.16
2018-09-26T09:11:32.880Z,1020.17
2018-09-26T09:12:32.866Z,1020.16
2018-09-26T09:13:32.859Z,1020.15
2018-09-26T09:14:32.956Z,1020.16
2018-09-26T09:15:32.829Z,1020.17
2018-09-26T09:16:32.883Z,1020.20
2018-09-26T09:17:32.785Z,1020.17
2018-09-26T09:18:32.784Z,1020.20
2018-09-26T09:19:32.760Z,1020.22
2018-09-26T09:20:32.762Z,1020.22
2018-09-26T09:21:32.745Z,1020.23
2018-09-26T09:22:32.732Z,1020.22
2018-09-26T09:23:32.708Z,1020.24
2018-09-26T09:24:32.701Z,1020.27
2018-09-26T09:25:32.681Z,1020.24
2018-09-26T09:26:32.703Z,1020.27
2018-09-26T09:27:32.726Z,1020.27
2018-09-26T09:28:32.636Z,1020.21
2018-09-26T09:29:32.621Z,1020.19
2018-09-26T09:30:32.627Z,1020.23
2018-09-26T09:31:32.639Z,1020.20
2018-09-26T09:32:32.582Z,1020.23
2018-09-26T09:33:32.569Z,1020.27
2018-09-26T09:34:32.564Z,1020.25
2018-09-26T09:35:32.543Z,1020.21
2018-09-26T09:36:32.632Z,1020.23
2018-09-26T09:37:32.504Z,1020.17
2018-09-26T09:38:32.498Z,1020.19
2018-09-26T09:39:32.497Z,1020.15
2018-09-26T09:40:32.460Z,1020.13
2018-09-26T09:41:32.454Z,1020.13
2018-09-26T09:42:32.446Z,1020.12
2018-09-26T09:43:32.433Z,1020.16
2018-09-26T09:44:32.484Z,1020.11
2018-09-26T09:45:32.403Z,1020.14
2018-09-26T09:46:32.398Z,1020.15
2018-09-26T09:47:32.411Z,1020.24
2018-09-26T09:48:32.415Z,1020.13
2018-09-26T09:49:32.345Z,1020.14
2018-09-26T09:50:32.332Z,1020.10
2018-09-26T09:51:32.324Z,1020.03
2018-09-26T09:52:32.305Z,1020.05
2018-09-26T09:53:32.292Z,1020.05
2018-09-26T09:54:32.307Z,1020.08
2018-09-26T09:55:32.265Z,1020.03
2018-09-26T09:56:32.245Z,1020.00
2018-09-26T09:57:32.230Z,1019.94
2018-09-26T09:58:32.222Z,1019.92
2018-09-26T09:59:32.296Z,1019.86
2018-09-26T10:00:32.210Z,1019.96
2018-09-26T10:01:32.179Z,1019.93
2018-09-26T10:02:32.234Z,1019.93
2018-09-26T10:03:32.153Z,1019.90
2018-09-26T10:04:32.145Z,1019.95
2018-09-26T10:05:32.123Z,1019.93
2018-09-26T10:06:32.113Z,1019.93
2018-09-26T10:07:32.104Z,1019.87
2018-09-26T10:08:32.089Z,1019.86
2018-09-26T10:09:32.072Z,1019.85
2018-09-26T10:10:32.061Z,1019.79
2018-09-26T10:11:32.046Z,1019.80
2018-09-26T10:12:32.058Z,1019.75
2018-09-26T10:13:32.015Z,1019.70
2018-09-26T10:14:32.075Z,1019.75
2018-09-26T10:15:31.997Z,1019.74
2018-09-26T10:16:32.002Z,1019.72
2018-09-26T10:17:32.000Z,1019.73
2018-09-26T10:18:32.003Z,1019.73
2018-09-26T10:19:31.924Z,1019.74
2018-09-26T10:20:31.923Z,1019.71
2018-09-26T10:21:31.912Z,1019.66
2018-09-26T10:22:31.893Z,1019.68
2018-09-26T10:23:31.878Z,1019.65
2018-09-26T10:24:31.871Z,1019.64
2018-09-26T10:25:31.860Z,1019.68
2018-09-26T10:26:31.834Z,1019.58
2018-09-26T10:27:31.828Z,1019.60
2018-09-26T10:28:31.820Z,1019.59
2018-09-26T10:29:31.812Z,1019.62
2018-09-26T10:30:31.792Z,1019.55
2018-09-26T10:31:31.775Z,1019.59
2018-09-26T10:32:31.755Z,1019.56
2018-09-26T10:33:31.739Z,1019.68
2018-09-26T10:34:31.748Z,1019.60
2018-09-26T10:35:31.721Z,1019.67
2018-09-26T10:36:31.693Z,1019.61
2018-09-26T10:37:31.688Z,1019.59
2018-09-26T10:38:31.674Z,1019.58
2018-09-26T10:39:31.670Z,1019.56
2018-09-26T10:40:31.648Z,1019.55
2018-09-26T10:41:31.672Z,1019.55
2018-09-26T10:42:31.612Z,1019.60
2018-09-26T10:43:31.613Z,1019.58
2018-09-26T10:44:31.597Z,1019.55
2018-09-26T10:45:31.584Z,1019.59
2018-09-26T10:46:31.620Z,1019.63
2018-09-26T10:47:31.562Z,1019.58
2018-09-26T10:48:31.543Z,1019.57
2018-09-26T10:49:31.529Z,1019.62
2018-09-26T10:50:31.516Z,1019.53
2018-09-26T10:51:31.834Z,1019.54
2018-09-26T10:52:31.491Z,1019.46
2018-09-26T10:53:31.470Z,1019.51
2018-09-26T10:54:31.455Z,1019.45
2018-09-26T10:55:31.452Z,1019.43
2018-09-26T10:56:31.507Z,1019.40
2018-09-26T10:57:31.429Z,1019.44
2018-09-26T10:58:31.407Z,1019.41
2018-09-26T10:59:31.396Z,1019.35
2018-09-26T11:00:31.383Z,1019.39
2018-09-26T11:01:31.381Z,1019.37
2018-09-26T11:02:31.452Z,1019.31
2018-09-26T11:03:31.353Z,1019.36
2018-09-26T11:04:31.338Z,1019.31
2018-09-26T11:05:31.319Z,1019.34
2018-09-26T11:06:31.320Z,1019.26
2018-09-26T11:07:31.326Z,1019.27
2018-09-26T11:08:31.279Z,1019.19
2018-09-26T11:09:31.258Z,1019.23
2018-09-26T11:10:31.247Z,1019.28
2018-09-26T11:11:31.249Z,1019.33
2018-09-26T11:12:31.323Z,1019.28
2018-09-26T11:13:31.228Z,1019.27
2018-09-26T11:14:31.208Z,1019.26
2018-09-26T11:15:31.189Z,1019.26
2018-09-26T11:16:31.183Z,1019.22
2018-09-26T11:17:31.194Z,1019.17
2018-09-26T11:18:31.154Z,1019.20
2018-09-26T11:19:31.145Z,1019.18
2018-09-26T11:20:31.190Z,1019.16
2018-09-26T11:21:31.116Z,1019.20
2018-09-26T11:22:31.094Z,1019.18
2018-09-26T11:23:31.089Z,1019.16
2018-09-26T11:24:31.073Z,1019.14
2018-09-26T11:25:31.072Z,1019.12
2018-09-26T11:26:31.111Z,1019.13
2018-09-26T11:27:31.044Z,1019.13
2018-09-26T11:28:31.068Z,1019.14
2018-09-26T11:29:31.028Z,1019.11
2018-09-26T11:30:30.993Z,1019.08
2018-09-26T11:31:30.987Z,1019.08
2018-09-26T11:32:31.009Z,1019.05
2018-09-26T11:33:31.084Z,1019.06
2018-09-26T11:34:30.959Z,1019.06
2018-09-26T11:35:30.943Z,1019.10
2018-09-26T11:36:30.925Z,1019.10
2018-09-26T11:37:30.986Z,1019.12
2018-09-26T11:38:30.903Z,1019.04
2018-09-26T11:39:30.898Z,1019.07
2018-09-26T11:40:30.883Z,1019.09
2018-09-26T11:41:30.865Z,1019.08
2018-09-26T11:42:30.868Z,1019.10
2018-09-26T11:43:30.872Z,1019.07
2018-09-26T11:44:30.898Z,1019.07
2018-09-26T11:45:30.825Z,1019.02
2018-09-26T11:46:30.793Z,1019.08
2018-09-26T11:47:30.791Z,1019.03
2018-09-26T11:48:30.850Z,1019.02
2018-09-26T11:49:30.771Z,1019.03
2018-09-26T11:50:30.760Z,1019.02
2018-09-26T11:51:30.740Z,1019.00
2018-09-26T11:52:30.729Z,1019.00
2018-09-26T11:53:30.709Z,1018.94
2018-09-26T11:54:30.733Z,1018.91
2018-09-26T11:55:30.699Z,1018.92
2018-09-26T11:56:30.800Z,1018.93
2018-09-26T11:57:30.681Z,1018.95
2018-09-26T11:58:30.663Z,1018.80
2018-09-26T11:59:30.673Z,1018.82
2018-09-26T12:00:30.633Z,1018.89
2018-09-26T12:01:30.654Z,1018.86
2018-09-26T12:02:30.697Z,1018.80
2018-09-26T12:03:30.603Z,1018.82
2018-09-26T12:04:30.576Z,1018.89
2018-09-26T12:05:30.608Z,1018.77